If you wish to contribute or participate in the discussions about articles you are invited to join SKYbrary as a registered user

 Actions

Avignon-Caumont Airport

From SKYbrary Wiki

LFMV
Airport
ICAO: LFMV – IATA: AVN
Summary
Name Avignon-Caumont Airport
Region Europe
Territory France FR.gif
Location , Provence-Alpes-Cote d'Azur
Serving Avignon
Elevation 37.795 m
124 ft
124 ft37.795 m
Type medium airport
Coordinates 43° 54' 26.28" N, 4° 54' 6.59" E
Runways
Designator Length Width Surface ROPS
17/35 1880 m6,167.979 ft
45 m147.638 ft
ASP yes/yes


METAR
Observation LFMV 221000Z AUTO 35006KT 9999 FEW068 SCT170 BKN230 06/03 Q1031 NOSIG
Station CAUMONT
Date/Time 22 January 2020 10:00:00
Wind direction 350°
Wind speed 06 kts
Lowest cloud amount few clouds
Temperature 6°C
Dew point 3°C
Humidity 81%
QNH 1031 hPa
Weather condition n/a